sensor_id;sensor_type;location;lat;lon;timestamp;temperature;humidity
68139;DHT22;54940;50.842;4.410;2022-10-17T00:00:15;15.60;99.90
68139;DHT22;54940;50.842;4.410;2022-10-17T00:02:40;15.60;99.90
68139;DHT22;54940;50.842;4.410;2022-10-17T00:05:06;15.60;99.90
68139;DHT22;54940;50.842;4.410;2022-10-17T00:07:32;15.60;99.90
68139;DHT22;54940;50.842;4.410;2022-10-17T00:09:58;15.60;99.90
68139;DHT22;54940;50.842;4.410;2022-10-17T00:12:23;15.50;99.90
68139;DHT22;54940;50.842;4.410;2022-10-17T00:14:49;15.50;99.90
68139;DHT22;54940;50.842;4.410;2022-10-17T00:17:14;15.60;99.90
68139;DHT22;54940;50.842;4.410;2022-10-17T00:19:40;15.60;99.90
68139;DHT22;54940;50.842;4.410;2022-10-17T00:22:06;15.50;99.90
68139;DHT22;54940;50.842;4.410;2022-10-17T00:24:32;15.50;99.90
68139;DHT22;54940;50.842;4.410;2022-10-17T00:26:57;15.50;99.90
68139;DHT22;54940;50.842;4.410;2022-10-17T00:29:23;15.60;99.90
68139;DHT22;54940;50.842;4.410;2022-10-17T00:31:48;15.60;99.90
68139;DHT22;54940;50.842;4.410;2022-10-17T00:34:14;15.60;99.90
68139;DHT22;54940;50.842;4.410;2022-10-17T00:36:40;15.50;99.90
68139;DHT22;54940;50.842;4.410;2022-10-17T00:39:05;15.50;99.90
68139;DHT22;54940;50.842;4.410;2022-10-17T00:41:32;15.50;99.90
68139;DHT22;54940;50.842;4.410;2022-10-17T00:43:59;15.50;99.90
68139;DHT22;54940;50.842;4.410;2022-10-17T00:46:28;15.60;99.90
68139;DHT22;54940;50.842;4.410;2022-10-17T00:48:55;15.60;99.90
68139;DHT22;54940;50.842;4.410;2022-10-17T00:51:26;15.70;99.90
68139;DHT22;54940;50.842;4.410;2022-10-17T00:53:54;15.70;99.90
68139;DHT22;54940;50.842;4.410;2022-10-17T00:56:20;15.70;99.90
68139;DHT22;54940;50.842;4.410;2022-10-17T00:58:46;15.80;99.90
68139;DHT22;54940;50.842;4.410;2022-10-17T01:01:12;15.80;99.90
68139;DHT22;54940;50.842;4.410;2022-10-17T01:03:38;15.80;99.90
68139;DHT22;54940;50.842;4.410;2022-10-17T01:06:03;15.80;99.90
68139;DHT22;54940;50.842;4.410;2022-10-17T01:08:29;15.80;99.90
68139;DHT22;54940;50.842;4.410;2022-10-17T01:14:10;15.90;99.90
68139;DHT22;54940;50.842;4.410;2022-10-17T01:28:10;16.20;99.90
68139;DHT22;54940;50.842;4.410;2022-10-17T01:31:09;16.20;99.90
68139;DHT22;54940;50.842;4.410;2022-10-17T01:33:46;16.30;99.90
68139;DHT22;54940;50.842;4.410;2022-10-17T01:38:57;16.30;99.90
68139;DHT22;54940;50.842;4.410;2022-10-17T01:47:03;16.30;99.90
68139;DHT22;54940;50.842;4.410;2022-10-17T01:49:30;16.40;99.90
68139;DHT22;54940;50.842;4.410;2022-10-17T01:52:00;16.40;99.90
68139;DHT22;54940;50.842;4.410;2022-10-17T01:55:12;16.40;99.90
68139;DHT22;54940;50.842;4.410;2022-10-17T01:57:47;16.50;99.90
68139;DHT22;54940;50.842;4.410;2022-10-17T02:00:18;16.50;99.90
68139;DHT22;54940;50.842;4.410;2022-10-17T02:02:46;16.40;99.90
68139;DHT22;54940;50.842;4.410;2022-10-17T02:05:12;16.40;99.90
68139;DHT22;54940;50.842;4.410;2022-10-17T02:07:40;16.50;99.90
68139;DHT22;54940;50.842;4.410;2022-10-17T02:10:17;16.60;99.90
68139;DHT22;54940;50.842;4.410;2022-10-17T02:12:55;16.60;99.90
68139;DHT22;54940;50.842;4.410;2022-10-17T02:15:48;16.50;99.90
68139;DHT22;54940;50.842;4.410;2022-10-17T02:21:05;16.70;99.90
68139;DHT22;54940;50.842;4.410;2022-10-17T02:23:49;16.70;99.90
68139;DHT22;54940;50.842;4.410;2022-10-17T02:26:32;16.70;99.90
68139;DHT22;54940;50.842;4.410;2022-10-17T02:29:15;16.70;99.90
68139;DHT22;54940;50.842;4.410;2022-10-17T02:32:03;16.70;99.90
68139;DHT22;54940;50.842;4.410;2022-10-17T02:34:40;16.70;99.90
68139;DHT22;54940;50.842;4.410;2022-10-17T02:37:09;16.80;99.90
68139;DHT22;54940;50.842;4.410;2022-10-17T02:39:36;16.70;99.90
68139;DHT22;54940;50.842;4.410;2022-10-17T02:42:06;16.70;99.90
68139;DHT22;54940;50.842;4.410;2022-10-17T02:44:34;16.80;99.90
68139;DHT22;54940;50.842;4.410;2022-10-17T02:49:45;16.80;99.90
68139;DHT22;54940;50.842;4.410;2022-10-17T02:52:15;16.70;99.90
68139;DHT22;54940;50.842;4.410;2022-10-17T02:54:52;16.80;99.90
68139;DHT22;54940;50.842;4.410;2022-10-17T02:57:30;16.80;99.90
68139;DHT22;54940;50.842;4.410;2022-10-17T02:59:59;16.80;99.90
68139;DHT22;54940;50.842;4.410;2022-10-17T03:02:25;16.80;99.90
68139;DHT22;54940;50.842;4.410;2022-10-17T03:04:51;16.80;99.90
68139;DHT22;54940;50.842;4.410;2022-10-17T03:07:17;16.80;99.90
68139;DHT22;54940;50.842;4.410;2022-10-17T03:09:42;16.80;99.90
68139;DHT22;54940;50.842;4.410;2022-10-17T03:12:08;16.90;99.90
68139;DHT22;54940;50.842;4.410;2022-10-17T03:14:34;16.90;99.90
68139;DHT22;54940;50.842;4.410;2022-10-17T03:16:59;17.00;99.90
68139;DHT22;54940;50.842;4.410;2022-10-17T03:19:25;17.00;99.90
68139;DHT22;54940;50.842;4.410;2022-10-17T03:21:51;17.00;99.90
68139;DHT22;54940;50.842;4.410;2022-10-17T03:24:16;17.00;99.90
68139;DHT22;54940;50.842;4.410;2022-10-17T03:26:42;17.00;99.90
68139;DHT22;54940;50.842;4.410;2022-10-17T03:29:08;17.10;99.90
68139;DHT22;54940;50.842;4.410;2022-10-17T03:31:33;17.00;99.90
68139;DHT22;54940;50.842;4.410;2022-10-17T03:34:01;17.00;99.90
68139;DHT22;54940;50.842;4.410;2022-10-17T03:36:26;16.90;99.90
68139;DHT22;54940;50.842;4.410;2022-10-17T03:38:53;16.90;99.90
68139;DHT22;54940;50.842;4.410;2022-10-17T03:41:19;16.90;99.90
68139;DHT22;54940;50.842;4.410;2022-10-17T03:43:44;16.90;99.90
68139;DHT22;54940;50.842;4.410;2022-10-17T03:46:10;16.90;99.90
68139;DHT22;54940;50.842;4.410;2022-10-17T03:48:36;17.00;99.90
68139;DHT22;54940;50.842;4.410;2022-10-17T03:51:04;17.00;99.90
68139;DHT22;54940;50.842;4.410;2022-10-17T03:53:30;17.10;99.90
68139;DHT22;54940;50.842;4.410;2022-10-17T03:55:56;17.10;99.90
68139;DHT22;54940;50.842;4.410;2022-10-17T03:58:32;17.20;99.90
68139;DHT22;54940;50.842;4.410;2022-10-17T04:01:03;17.10;99.90
68139;DHT22;54940;50.842;4.410;2022-10-17T04:03:28;17.10;99.90
68139;DHT22;54940;50.842;4.410;2022-10-17T04:05:58;17.10;99.90
68139;DHT22;54940;50.842;4.410;2022-10-17T04:08:24;17.20;99.90
68139;DHT22;54940;50.842;4.410;2022-10-17T04:10:50;17.20;99.90
68139;DHT22;54940;50.842;4.410;2022-10-17T04:13:15;17.20;99.90
68139;DHT22;54940;50.842;4.410;2022-10-17T04:15:41;17.10;99.90
68139;DHT22;54940;50.842;4.410;2022-10-17T04:18:06;17.20;99.90
68139;DHT22;54940;50.842;4.410;2022-10-17T04:20:33;17.00;99.90
68139;DHT22;54940;50.842;4.410;2022-10-17T04:22:59;17.10;99.90
68139;DHT22;54940;50.842;4.410;2022-10-17T04:25:25;17.10;99.90
68139;DHT22;54940;50.842;4.410;2022-10-17T04:27:50;17.10;99.90
68139;DHT22;54940;50.842;4.410;2022-10-17T04:30:16;17.10;99.90
68139;DHT22;54940;50.842;4.410;2022-10-17T04:32:42;17.10;99.90
68139;DHT22;54940;50.842;4.410;2022-10-17T04:35:07;17.10;99.90
68139;DHT22;54940;50.842;4.410;2022-10-17T04:37:33;17.10;99.90
68139;DHT22;54940;50.842;4.410;2022-10-17T04:39:59;17.10;99.90
68139;DHT22;54940;50.842;4.410;2022-10-17T04:42:24;17.10;99.90
68139;DHT22;54940;50.842;4.410;2022-10-17T04:44:50;17.10;99.90
68139;DHT22;54940;50.842;4.410;2022-10-17T04:47:16;17.10;99.90
68139;DHT22;54940;50.842;4.410;2022-10-17T04:49:41;17.10;99.90
68139;DHT22;54940;50.842;4.410;2022-10-17T04:52:07;17.10;99.90
68139;DHT22;54940;50.842;4.410;2022-10-17T04:54:32;17.00;99.90
68139;DHT22;54940;50.842;4.410;2022-10-17T04:56:58;17.00;99.90
68139;DHT22;54940;50.842;4.410;2022-10-17T04:59:23;16.90;99.90
68139;DHT22;54940;50.842;4.410;2022-10-17T05:01:49;17.00;99.90
68139;DHT22;54940;50.842;4.410;2022-10-17T05:04:15;17.00;99.90
68139;DHT22;54940;50.842;4.410;2022-10-17T05:06:41;17.00;99.90
68139;DHT22;54940;50.842;4.410;2022-10-17T05:09:06;17.00;99.90
68139;DHT22;54940;50.842;4.410;2022-10-17T05:11:32;17.00;99.90
68139;DHT22;54940;50.842;4.410;2022-10-17T05:13:59;17.00;99.90
68139;DHT22;54940;50.842;4.410;2022-10-17T05:16:27;17.00;99.90
68139;DHT22;54940;50.842;4.410;2022-10-17T05:18:55;17.10;99.90
68139;DHT22;54940;50.842;4.410;2022-10-17T05:21:23;17.10;99.90
68139;DHT22;54940;50.842;4.410;2022-10-17T05:23:49;17.10;99.90
68139;DHT22;54940;50.842;4.410;2022-10-17T05:26:15;17.10;99.90
68139;DHT22;54940;50.842;4.410;2022-10-17T05:28:41;17.10;99.90
68139;DHT22;54940;50.842;4.410;2022-10-17T05:31:07;17.00;99.90
68139;DHT22;54940;50.842;4.410;2022-10-17T05:33:34;17.00;99.90
68139;DHT22;54940;50.842;4.410;2022-10-17T05:36:00;17.00;99.90
68139;DHT22;54940;50.842;4.410;2022-10-17T05:38:26;17.10;99.90
68139;DHT22;54940;50.842;4.410;2022-10-17T05:40:56;17.10;99.90
68139;DHT22;54940;50.842;4.410;2022-10-17T05:43:22;17.10;99.90
68139;DHT22;54940;50.842;4.410;2022-10-17T05:45:48;17.00;99.90
68139;DHT22;54940;50.842;4.410;2022-10-17T05:48:14;17.10;99.90
68139;DHT22;54940;50.842;4.410;2022-10-17T05:50:39;17.10;99.90
68139;DHT22;54940;50.842;4.410;2022-10-17T05:53:05;17.10;99.90
68139;DHT22;54940;50.842;4.410;2022-10-17T05:55:30;17.10;99.90
68139;DHT22;54940;50.842;4.410;2022-10-17T05:57:58;17.10;99.90
68139;DHT22;54940;50.842;4.410;2022-10-17T06:00:23;17.20;99.90
68139;DHT22;54940;50.842;4.410;2022-10-17T06:02:49;17.30;99.90
68139;DHT22;54940;50.842;4.410;2022-10-17T06:05:15;17.20;99.90
68139;DHT22;54940;50.842;4.410;2022-10-17T06:07:41;17.20;99.90
68139;DHT22;54940;50.842;4.410;2022-10-17T06:10:07;17.20;99.90
68139;DHT22;54940;50.842;4.410;2022-10-17T06:12:33;17.10;99.90
68139;DHT22;54940;50.842;4.410;2022-10-17T06:14:59;17.10;99.90
68139;DHT22;54940;50.842;4.410;2022-10-17T06:17:25;17.20;99.90
68139;DHT22;54940;50.842;4.410;2022-10-17T06:19:50;17.20;99.90
68139;DHT22;54940;50.842;4.410;2022-10-17T06:22:16;17.20;99.90
68139;DHT22;54940;50.842;4.410;2022-10-17T06:24:41;17.30;99.90
68139;DHT22;54940;50.842;4.410;2022-10-17T06:27:07;17.30;99.90
68139;DHT22;54940;50.842;4.410;2022-10-17T06:29:33;17.30;99.90
68139;DHT22;54940;50.842;4.410;2022-10-17T06:31:59;17.30;99.90
68139;DHT22;54940;50.842;4.410;2022-10-17T06:34:25;17.30;99.90
68139;DHT22;54940;50.842;4.410;2022-10-17T06:36:52;17.30;99.90
68139;DHT22;54940;50.842;4.410;2022-10-17T06:39:18;17.30;99.90
68139;DHT22;54940;50.842;4.410;2022-10-17T06:41:43;17.30;99.90
68139;DHT22;54940;50.842;4.410;2022-10-17T06:44:10;17.30;99.90
68139;DHT22;54940;50.842;4.410;2022-10-17T06:46:37;17.30;99.90
68139;DHT22;54940;50.842;4.410;2022-10-17T06:49:03;17.30;99.90
68139;DHT22;54940;50.842;4.410;2022-10-17T06:51:30;17.30;99.90
68139;DHT22;54940;50.842;4.410;2022-10-17T06:53:58;17.50;99.90
68139;DHT22;54940;50.842;4.410;2022-10-17T06:56:24;17.50;99.90
68139;DHT22;54940;50.842;4.410;2022-10-17T06:58:50;17.60;99.90
68139;DHT22;54940;50.842;4.410;2022-10-17T07:01:15;17.60;99.90
68139;DHT22;54940;50.842;4.410;2022-10-17T07:03:41;17.60;99.90
68139;DHT22;54940;50.842;4.410;2022-10-17T07:06:08;17.70;99.90
68139;DHT22;54940;50.842;4.410;2022-10-17T07:08:36;17.70;99.90
68139;DHT22;54940;50.842;4.410;2022-10-17T07:11:13;17.70;99.90
68139;DHT22;54940;50.842;4.410;2022-10-17T07:13:39;17.70;99.90
68139;DHT22;54940;50.842;4.410;2022-10-17T07:16:05;17.70;99.90
68139;DHT22;54940;50.842;4.410;2022-10-17T07:18:31;17.70;99.90
68139;DHT22;54940;50.842;4.410;2022-10-17T07:20:57;17.70;99.90
68139;DHT22;54940;50.842;4.410;2022-10-17T07:23:22;17.80;99.90
68139;DHT22;54940;50.842;4.410;2022-10-17T07:25:48;17.70;99.90
68139;DHT22;54940;50.842;4.410;2022-10-17T07:28:15;17.80;99.90
68139;DHT22;54940;50.842;4.410;2022-10-17T07:30:41;17.90;99.90
68139;DHT22;54940;50.842;4.410;2022-10-17T07:33:07;17.80;99.90
68139;DHT22;54940;50.842;4.410;2022-10-17T07:35:33;17.70;99.90
68139;DHT22;54940;50.842;4.410;2022-10-17T07:37:58;17.60;99.90
68139;DHT22;54940;50.842;4.410;2022-10-17T07:40:24;17.60;99.90
68139;DHT22;54940;50.842;4.410;2022-10-17T07:42:49;17.50;99.90
68139;DHT22;54940;50.842;4.410;2022-10-17T07:45:15;17.40;99.90
68139;DHT22;54940;50.842;4.410;2022-10-17T07:47:42;17.40;99.90
68139;DHT22;54940;50.842;4.410;2022-10-17T07:50:08;17.30;99.90
68139;DHT22;54940;50.842;4.410;2022-10-17T07:52:33;17.40;99.90
68139;DHT22;54940;50.842;4.410;2022-10-17T07:54:59;17.40;99.90
68139;DHT22;54940;50.842;4.410;2022-10-17T07:57:25;17.30;99.90
68139;DHT22;54940;50.842;4.410;2022-10-17T07:59:51;17.30;99.90
68139;DHT22;54940;50.842;4.410;2022-10-17T08:02:23;17.30;99.90
68139;DHT22;54940;50.842;4.410;2022-10-17T08:04:50;17.30;99.90
68139;DHT22;54940;50.842;4.410;2022-10-17T08:07:16;17.30;99.90
68139;DHT22;54940;50.842;4.410;2022-10-17T08:09:42;17.40;99.90
68139;DHT22;54940;50.842;4.410;2022-10-17T08:12:08;17.40;99.90
68139;DHT22;54940;50.842;4.410;2022-10-17T08:14:34;17.40;99.90
68139;DHT22;54940;50.842;4.410;2022-10-17T08:17:00;17.40;99.90
68139;DHT22;54940;50.842;4.410;2022-10-17T08:19:25;17.40;99.90
68139;DHT22;54940;50.842;4.410;2022-10-17T08:21:51;17.40;99.90
68139;DHT22;54940;50.842;4.410;2022-10-17T08:24:19;17.40;99.90
68139;DHT22;54940;50.842;4.410;2022-10-17T08:26:44;17.40;99.90
68139;DHT22;54940;50.842;4.410;2022-10-17T08:29:14;17.40;99.90
68139;DHT22;54940;50.842;4.410;2022-10-17T08:31:40;17.40;99.90
68139;DHT22;54940;50.842;4.410;2022-10-17T08:34:06;17.40;99.90
68139;DHT22;54940;50.842;4.410;2022-10-17T08:36:31;17.40;99.90
68139;DHT22;54940;50.842;4.410;2022-10-17T08:38:57;17.40;99.90
68139;DHT22;54940;50.842;4.410;2022-10-17T08:42:05;17.60;99.90
68139;DHT22;54940;50.842;4.410;2022-10-17T08:47:36;17.60;99.90
68139;DHT22;54940;50.842;4.410;2022-10-17T08:50:06;17.50;99.90
68139;DHT22;54940;50.842;4.410;2022-10-17T08:52:49;17.50;99.90
68139;DHT22;54940;50.842;4.410;2022-10-17T08:55:27;17.50;99.90
68139;DHT22;54940;50.842;4.410;2022-10-17T08:57:53;17.50;99.90
68139;DHT22;54940;50.842;4.410;2022-10-17T09:00:20;17.60;99.90
68139;DHT22;54940;50.842;4.410;2022-10-17T09:06:10;17.60;99.90
68139;DHT22;54940;50.842;4.410;2022-10-17T09:08:53;17.50;99.90
68139;DHT22;54940;50.842;4.410;2022-10-17T09:11:37;17.60;99.90
68139;DHT22;54940;50.842;4.410;2022-10-17T09:19:36;17.50;99.90
68139;DHT22;54940;50.842;4.410;2022-10-17T09:22:17;17.50;99.90
68139;DHT22;54940;50.842;4.410;2022-10-17T09:29:56;17.40;99.90
68139;DHT22;54940;50.842;4.410;2022-10-17T09:32:25;17.40;99.90
68139;DHT22;54940;50.842;4.410;2022-10-17T09:34:52;17.50;99.90
68139;DHT22;54940;50.842;4.410;2022-10-17T09:37:18;17.50;99.90
68139;DHT22;54940;50.842;4.410;2022-10-17T09:39:47;17.50;99.90
68139;DHT22;54940;50.842;4.410;2022-10-17T09:42:14;17.50;99.90
68139;DHT22;54940;50.842;4.410;2022-10-17T09:47:45;17.50;99.90
68139;DHT22;54940;50.842;4.410;2022-10-17T09:50:21;17.60;99.90
68139;DHT22;54940;50.842;4.410;2022-10-17T09:52:49;17.70;99.90
68139;DHT22;54940;50.842;4.410;2022-10-17T09:58:01;17.70;99.90
68139;DHT22;54940;50.842;4.410;2022-10-17T10:00:32;17.70;99.90
68139;DHT22;54940;50.842;4.410;2022-10-17T10:03:17;17.70;99.90
68139;DHT22;54940;50.842;4.410;2022-10-17T10:11:14;17.60;99.90
68139;DHT22;54940;50.842;4.410;2022-10-17T10:13:42;17.50;99.90
68139;DHT22;54940;50.842;4.410;2022-10-17T10:16:25;17.60;99.90
68139;DHT22;54940;50.842;4.410;2022-10-17T10:18:54;17.60;99.90
68139;DHT22;54940;50.842;4.410;2022-10-17T10:21:26;17.70;99.90
68139;DHT22;54940;50.842;4.410;2022-10-17T10:26:41;17.70;99.90
68139;DHT22;54940;50.842;4.410;2022-10-17T10:32:11;17.70;99.90
68139;DHT22;54940;50.842;4.410;2022-10-17T10:34:43;17.70;99.90
68139;DHT22;54940;50.842;4.410;2022-10-17T10:37:43;17.70;99.90
68139;DHT22;54940;50.842;4.410;2022-10-17T10:40:24;17.80;99.90
68139;DHT22;54940;50.842;4.410;2022-10-17T10:42:54;17.70;99.90
68139;DHT22;54940;50.842;4.410;2022-10-17T10:45:26;17.70;99.90
68139;DHT22;54940;50.842;4.410;2022-10-17T10:48:00;17.70;99.90
68139;DHT22;54940;50.842;4.410;2022-10-17T10:56:00;17.70;99.90
68139;DHT22;54940;50.842;4.410;2022-10-17T11:01:21;17.80;99.90
68139;DHT22;54940;50.842;4.410;2022-10-17T11:06:43;17.70;99.90
68139;DHT22;54940;50.842;4.410;2022-10-17T11:09:30;17.80;99.90
68139;DHT22;54940;50.842;4.410;2022-10-17T11:12:09;17.80;99.90
68139;DHT22;54940;50.842;4.410;2022-10-17T11:17:23;17.90;99.90
68139;DHT22;54940;50.842;4.410;2022-10-17T11:22:41;17.80;99.90
68139;DHT22;54940;50.842;4.410;2022-10-17T11:27:40;17.70;99.90
68139;DHT22;54940;50.842;4.410;2022-10-17T11:30:08;17.70;99.90
68139;DHT22;54940;50.842;4.410;2022-10-17T11:32:49;17.70;99.90
68139;DHT22;54940;50.842;4.410;2022-10-17T11:35:20;17.80;99.90
68139;DHT22;54940;50.842;4.410;2022-10-17T11:40:32;17.80;99.90
68139;DHT22;54940;50.842;4.410;2022-10-17T11:43:05;17.90;99.90
68139;DHT22;54940;50.842;4.410;2022-10-17T11:45:35;17.80;99.90
68139;DHT22;54940;50.842;4.410;2022-10-17T11:48:08;17.90;99.90
68139;DHT22;54940;50.842;4.410;2022-10-17T11:50:39;17.80;99.90
68139;DHT22;54940;50.842;4.410;2022-10-17T11:55:35;17.90;99.90
68139;DHT22;54940;50.842;4.410;2022-10-17T12:08:32;18.10;99.90
68139;DHT22;54940;50.842;4.410;2022-10-17T12:13:51;18.00;99.90
68139;DHT22;54940;50.842;4.410;2022-10-17T12:19:33;18.00;99.90
68139;DHT22;54940;50.842;4.410;2022-10-17T12:27:30;17.90;99.90
68139;DHT22;54940;50.842;4.410;2022-10-17T12:32:36;18.00;99.90
68139;DHT22;54940;50.842;4.410;2022-10-17T12:35:02;17.90;99.90
68139;DHT22;54940;50.842;4.410;2022-10-17T12:46:02;18.00;99.90
68139;DHT22;54940;50.842;4.410;2022-10-17T12:56:16;18.10;99.90
68139;DHT22;54940;50.842;4.410;2022-10-17T12:58:48;18.10;99.90
68139;DHT22;54940;50.842;4.410;2022-10-17T13:01:18;18.10;99.90
68139;DHT22;54940;50.842;4.410;2022-10-17T13:03:47;18.00;99.90
68139;DHT22;54940;50.842;4.410;2022-10-17T13:06:25;18.00;99.90
68139;DHT22;54940;50.842;4.410;2022-10-17T13:08:57;18.10;99.90
68139;DHT22;54940;50.842;4.410;2022-10-17T13:11:25;18.10;99.90
68139;DHT22;54940;50.842;4.410;2022-10-17T13:13:53;18.20;99.90
68139;DHT22;54940;50.842;4.410;2022-10-17T13:16:30;18.20;99.90
68139;DHT22;54940;50.842;4.410;2022-10-17T13:18:57;18.30;99.90
68139;DHT22;54940;50.842;4.410;2022-10-17T13:21:23;18.30;99.90
68139;DHT22;54940;50.842;4.410;2022-10-17T13:23:49;18.30;99.90
68139;DHT22;54940;50.842;4.410;2022-10-17T13:26:26;18.30;99.90
68139;DHT22;54940;50.842;4.410;2022-10-17T13:29:14;18.40;99.90
68139;DHT22;54940;50.842;4.410;2022-10-17T13:31:42;18.50;99.90
68139;DHT22;54940;50.842;4.410;2022-10-17T13:34:26;18.60;99.90
68139;DHT22;54940;50.842;4.410;2022-10-17T13:36:55;18.50;99.90
68139;DHT22;54940;50.842;4.410;2022-10-17T13:39:23;18.50;99.90
68139;DHT22;54940;50.842;4.410;2022-10-17T13:41:55;18.40;99.90
68139;DHT22;54940;50.842;4.410;2022-10-17T13:44:26;18.40;99.90
68139;DHT22;54940;50.842;4.410;2022-10-17T13:46:52;18.50;99.90
68139;DHT22;54940;50.842;4.410;2022-10-17T13:49:34;18.40;99.90
68139;DHT22;54940;50.842;4.410;2022-10-17T13:52:02;18.40;99.90
68139;DHT22;54940;50.842;4.410;2022-10-17T13:54:43;18.40;99.90
68139;DHT22;54940;50.842;4.410;2022-10-17T13:57:22;18.40;99.90
68139;DHT22;54940;50.842;4.410;2022-10-17T14:02:21;18.30;99.90
68139;DHT22;54940;50.842;4.410;2022-10-17T14:05:19;18.40;99.90
68139;DHT22;54940;50.842;4.410;2022-10-17T14:08:04;18.30;99.90
68139;DHT22;54940;50.842;4.410;2022-10-17T14:10:32;18.20;99.90
68139;DHT22;54940;50.842;4.410;2022-10-17T14:12:59;18.30;99.90
68139;DHT22;54940;50.842;4.410;2022-10-17T14:15:30;18.30;99.90
68139;DHT22;54940;50.842;4.410;2022-10-17T14:18:07;18.30;99.90
68139;DHT22;54940;50.842;4.410;2022-10-17T14:20:34;18.30;99.90
68139;DHT22;54940;50.842;4.410;2022-10-17T14:23:00;18.30;99.90
68139;DHT22;54940;50.842;4.410;2022-10-17T14:25:35;18.30;99.90
68139;DHT22;54940;50.842;4.410;2022-10-17T14:28:12;18.30;99.90
68139;DHT22;54940;50.842;4.410;2022-10-17T14:30:47;18.30;99.90
68139;DHT22;54940;50.842;4.410;2022-10-17T14:33:25;18.40;99.90
68139;DHT22;54940;50.842;4.410;2022-10-17T14:35:56;18.40;99.90
68139;DHT22;54940;50.842;4.410;2022-10-17T14:38:23;18.50;99.90
68139;DHT22;54940;50.842;4.410;2022-10-17T14:40:51;18.50;99.90
68139;DHT22;54940;50.842;4.410;2022-10-17T14:43:22;18.40;99.90
68139;DHT22;54940;50.842;4.410;2022-10-17T14:45:57;18.40;99.90
68139;DHT22;54940;50.842;4.410;2022-10-17T14:48:24;18.30;99.90
68139;DHT22;54940;50.842;4.410;2022-10-17T14:53:34;18.40;99.90
68139;DHT22;54940;50.842;4.410;2022-10-17T14:56:23;18.40;99.90
68139;DHT22;54940;50.842;4.410;2022-10-17T14:58:49;18.50;99.90
68139;DHT22;54940;50.842;4.410;2022-10-17T15:01:16;18.40;99.90
68139;DHT22;54940;50.842;4.410;2022-10-17T15:03:42;18.30;99.90
68139;DHT22;54940;50.842;4.410;2022-10-17T15:06:20;18.40;99.90
68139;DHT22;54940;50.842;4.410;2022-10-17T15:08:46;18.30;99.90
68139;DHT22;54940;50.842;4.410;2022-10-17T15:11:12;18.30;99.90
68139;DHT22;54940;50.842;4.410;2022-10-17T15:13:38;18.30;99.90
68139;DHT22;54940;50.842;4.410;2022-10-17T15:16:30;18.40;99.90
68139;DHT22;54940;50.842;4.410;2022-10-17T15:18:56;18.40;99.90
68139;DHT22;54940;50.842;4.410;2022-10-17T15:21:25;18.40;99.90
68139;DHT22;54940;50.842;4.410;2022-10-17T15:23:51;18.50;99.90
68139;DHT22;54940;50.842;4.410;2022-10-17T15:26:24;18.40;99.90
68139;DHT22;54940;50.842;4.410;2022-10-17T15:28:51;18.40;99.90
68139;DHT22;54940;50.842;4.410;2022-10-17T15:31:20;18.30;99.90
68139;DHT22;54940;50.842;4.410;2022-10-17T15:33:46;18.30;99.90
68139;DHT22;54940;50.842;4.410;2022-10-17T15:36:39;18.20;99.90
68139;DHT22;54940;50.842;4.410;2022-10-17T15:39:05;18.20;99.90
68139;DHT22;54940;50.842;4.410;2022-10-17T15:41:32;18.20;99.90
68139;DHT22;54940;50.842;4.410;2022-10-17T15:43:58;18.20;99.90
68139;DHT22;54940;50.842;4.410;2022-10-17T15:46:26;18.20;99.90
68139;DHT22;54940;50.842;4.410;2022-10-17T15:48:54;18.30;99.90
68139;DHT22;54940;50.842;4.410;2022-10-17T15:51:21;18.30;99.90
68139;DHT22;54940;50.842;4.410;2022-10-17T15:53:46;18.30;99.90
68139;DHT22;54940;50.842;4.410;2022-10-17T15:56:25;18.20;99.90
68139;DHT22;54940;50.842;4.410;2022-10-17T15:58:52;18.20;99.90
68139;DHT22;54940;50.842;4.410;2022-10-17T16:01:27;18.20;99.90
68139;DHT22;54940;50.842;4.410;2022-10-17T16:03:53;18.20;99.90
68139;DHT22;54940;50.842;4.410;2022-10-17T16:06:19;18.20;99.90
68139;DHT22;54940;50.842;4.410;2022-10-17T16:08:45;18.10;99.90
68139;DHT22;54940;50.842;4.410;2022-10-17T16:11:40;18.10;99.90
68139;DHT22;54940;50.842;4.410;2022-10-17T16:14:12;18.00;99.90
68139;DHT22;54940;50.842;4.410;2022-10-17T16:16:38;18.00;99.90
68139;DHT22;54940;50.842;4.410;2022-10-17T16:19:04;18.00;99.90
68139;DHT22;54940;50.842;4.410;2022-10-17T16:21:32;18.00;99.90
68139;DHT22;54940;50.842;4.410;2022-10-17T16:23:59;18.10;99.90
68139;DHT22;54940;50.842;4.410;2022-10-17T16:26:25;18.00;99.90
68139;DHT22;54940;50.842;4.410;2022-10-17T16:28:51;18.10;99.90
68139;DHT22;54940;50.842;4.410;2022-10-17T16:33:49;18.10;99.90
68139;DHT22;54940;50.842;4.410;2022-10-17T16:36:15;18.00;99.90
68139;DHT22;54940;50.842;4.410;2022-10-17T16:38:41;18.00;99.90
68139;DHT22;54940;50.842;4.410;2022-10-17T16:41:26;18.00;99.90
68139;DHT22;54940;50.842;4.410;2022-10-17T16:43:54;17.90;99.90
68139;DHT22;54940;50.842;4.410;2022-10-17T16:46:20;17.90;99.90
68139;DHT22;54940;50.842;4.410;2022-10-17T16:48:46;17.90;99.90
68139;DHT22;54940;50.842;4.410;2022-10-17T16:51:13;17.90;99.90
68139;DHT22;54940;50.842;4.410;2022-10-17T16:53:40;18.00;99.90
68139;DHT22;54940;50.842;4.410;2022-10-17T16:56:14;17.90;99.90
68139;DHT22;54940;50.842;4.410;2022-10-17T16:58:41;17.90;99.90
68139;DHT22;54940;50.842;4.410;2022-10-17T17:01:09;17.90;99.90
68139;DHT22;54940;50.842;4.410;2022-10-17T17:03:37;17.90;99.90
68139;DHT22;54940;50.842;4.410;2022-10-17T17:06:04;17.90;99.90
68139;DHT22;54940;50.842;4.410;2022-10-17T17:08:31;17.80;99.90
68139;DHT22;54940;50.842;4.410;2022-10-17T17:10:56;17.80;99.90
68139;DHT22;54940;50.842;4.410;2022-10-17T17:13:23;17.80;99.90
68139;DHT22;54940;50.842;4.410;2022-10-17T17:15:49;17.70;99.90
68139;DHT22;54940;50.842;4.410;2022-10-17T17:18:19;17.70;99.90
68139;DHT22;54940;50.842;4.410;2022-10-17T17:20:44;17.60;99.90
68139;DHT22;54940;50.842;4.410;2022-10-17T17:23:10;17.50;99.90
68139;DHT22;54940;50.842;4.410;2022-10-17T17:25:36;17.50;99.90
68139;DHT22;54940;50.842;4.410;2022-10-17T17:28:05;17.50;99.90
68139;DHT22;54940;50.842;4.410;2022-10-17T17:30:34;17.60;99.90
68139;DHT22;54940;50.842;4.410;2022-10-17T17:33:00;17.50;99.90
68139;DHT22;54940;50.842;4.410;2022-10-17T17:35:26;17.50;99.90
68139;DHT22;54940;50.842;4.410;2022-10-17T17:37:52;17.60;99.90
68139;DHT22;54940;50.842;4.410;2022-10-17T17:40:18;17.60;99.90
68139;DHT22;54940;50.842;4.410;2022-10-17T17:42:44;17.50;99.90
68139;DHT22;54940;50.842;4.410;2022-10-17T17:45:10;17.40;99.90
68139;DHT22;54940;50.842;4.410;2022-10-17T17:47:36;17.40;99.90
68139;DHT22;54940;50.842;4.410;2022-10-17T17:50:01;17.40;99.90
68139;DHT22;54940;50.842;4.410;2022-10-17T17:52:28;17.40;99.90
68139;DHT22;54940;50.842;4.410;2022-10-17T17:54:54;17.50;99.90
68139;DHT22;54940;50.842;4.410;2022-10-17T17:57:20;17.40;99.90